Time;durP1;ratioP1;P1;durP2;ratioP2;P2;SDS_P1;SDS_P2;PMS_P1;PMS_P2;Temp;Humidity;BMP_temperature;BMP_pressure;BME280_temperature;BME280_humidity;BME280_pressure;Samples;Min_cycle;Max_cycle;Signal;HPM_P1;HPM_P2
2023/05/02 00:00:46;;;;;;;;;6.75;5.50;;;;;20.28;43.51;101668.84;4982153;28;45299;-39
2023/05/02 00:03:12;;;;;;;;;6.25;6.00;;;;;20.27;43.37;101669.75;4984562;28;45480;-39
2023/05/02 00:05:37;;;;;;;;;9.25;6.25;;;;;20.27;43.67;101675.03;4981603;28;45447;-38
2023/05/02 00:08:03;;;;;;;;;4.50;4.50;;;;;20.27;43.40;101672.38;4981540;28;45222;-40
2023/05/02 00:10:29;;;;;;;;;5.50;5.00;;;;;20.27;43.61;101674.19;4983094;28;45241;-39
2023/05/02 00:12:54;;;;;;;;;7.00;5.00;;;;;20.25;43.28;101663.69;4987157;28;52167;-41
2023/05/02 00:15:19;;;;;;;;;6.00;6.00;;;;;20.26;43.47;101675.09;4986129;28;45195;-39
2023/05/02 00:17:45;;;;;;;;;4.00;4.00;;;;;20.24;43.48;101665.47;4983592;28;45300;-41
2023/05/02 00:20:11;;;;;;;;;5.00;4.00;;;;;20.25;43.71;101668.94;4980284;28;45474;-39
2023/05/02 00:22:38;;;;;;;;;3.25;3.25;;;;;20.25;43.59;101666.31;4978491;28;46214;-41
2023/05/02 00:25:03;;;;;;;;;8.00;4.25;;;;;20.23;43.77;101660.25;4983851;28;45309;-38
2023/05/02 00:27:30;;;;;;;;;5.00;5.00;;;;;20.25;43.68;101676.84;4984356;28;45316;-40
2023/05/02 00:29:57;;;;;;;;;5.25;4.50;;;;;20.24;43.41;101661.97;4983650;28;45185;-41
2023/05/02 00:32:22;;;;;;;;;6.75;5.50;;;;;20.24;43.79;101656.72;4982120;28;47260;-39
2023/05/02 00:34:47;;;;;;;;;5.00;5.00;;;;;20.24;43.32;101661.97;4984320;28;45340;-42
2023/05/02 00:37:13;;;;;;;;;7.00;5.50;;;;;20.23;43.77;101660.25;4991501;28;45317;-38
2023/05/02 00:39:38;;;;;;;;;6.00;5.00;;;;;20.23;43.48;101660.25;4991844;28;45538;-41
2023/05/02 00:42:03;;;;;;;;;7.00;5.50;;;;;20.22;43.73;101658.56;4990507;28;48467;-38
2023/05/02 00:44:29;;;;;;;;;5.00;5.00;;;;;20.24;43.53;101656.72;4984006;28;45302;-38
2023/05/02 00:46:55;;;;;;;;;5.00;5.00;;;;;20.23;43.68;101660.25;4983548;28;45445;-36
2023/05/02 00:49:21;;;;;;;;;5.75;5.75;;;;;20.23;43.36;101665.53;4998496;28;45503;-40
2023/05/02 00:51:46;;;;;;;;;5.00;4.50;;;;;20.22;43.68;101661.22;5006026;28;46393;-36
2023/05/02 00:54:12;;;;;;;;;6.75;6.00;;;;;20.23;43.50;101668.16;5005122;28;44691;-40
2023/05/02 00:56:38;;;;;;;;;5.00;5.00;;;;;20.22;43.49;101663.84;5001023;28;44746;-36
2023/05/02 00:59:05;;;;;;;;;7.50;4.75;;;;;20.22;43.78;101674.38;5000737;28;44818;-36
2023/05/02 01:01:50;;;;;;;;;7.00;5.00;;;;;20.21;43.51;101662.97;5019562;28;46321;-37
2023/05/02 01:04:21;;;;;;;;;5.00;5.00;;;;;20.22;43.37;101672.56;5004338;28;45171;-39
2023/05/02 01:07:06;;;;;;;;;4.50;4.00;;;;;20.22;43.41;101674.38;5005564;28;44778;-37
2023/05/02 01:10:08;;;;;;;;;6.25;5.00;;;;;20.22;43.73;101669.94;5003266;28;45292;-36
2023/05/02 01:13:00;;;;;;;;;4.25;4.25;;;;;20.22;43.71;101669.09;4995145;28;45897;-36
2023/05/02 01:15:26;;;;;;;;;9.00;5.00;;;;;20.21;43.70;101667.38;4988551;28;45738;-38
2023/05/02 01:17:55;;;;;;;;;6.25;6.25;;;;;20.21;43.33;101667.38;4987147;28;45139;-41
2023/05/02 01:20:26;;;;;;;;;5.00;5.00;;;;;20.19;43.66;101670.06;4987439;28;45472;-41
2023/05/02 01:22:54;;;;;;;;;7.75;6.00;;;;;20.21;43.27;101672.66;5007123;28;46316;-41
2023/05/02 01:25:58;;;;;;;;;6.00;5.00;;;;;20.21;43.64;101675.28;4991879;28;46210;-40
2023/05/02 01:28:54;;;;;;;;;4.25;4.25;;;;;20.19;43.78;101674.47;4980539;28;45376;-37
2023/05/02 01:31:22;;;;;;;;;4.25;4.25;;;;;20.20;43.35;101673.56;4986959;28;45565;-40
2023/05/02 01:33:48;;;;;;;;;5.25;4.00;;;;;20.19;43.77;101670.06;4981794;28;45364;-41
2023/05/02 01:36:16;;;;;;;;;5.25;3.75;;;;;20.19;43.72;101670.06;4979984;28;45768;-41
2023/05/02 01:38:43;;;;;;;;;5.50;5.50;;;;;20.20;43.44;101670.94;4979786;28;45356;-39
2023/05/02 01:41:11;;;;;;;;;4.75;4.75;;;;;20.20;43.45;101676.19;4979477;28;45344;-42
2023/05/02 01:43:37;;;;;;;;;5.75;5.00;;;;;20.20;43.18;101682.31;4979973;28;46086;-35
2023/05/02 01:46:06;;;;;;;;;5.00;5.00;;;;;20.19;43.62;101679.75;4979541;28;45496;-40
2023/05/02 01:48:32;;;;;;;;;6.00;5.00;;;;;20.20;43.81;101681.47;4979466;28;45509;-37
2023/05/02 01:50:58;;;;;;;;;4.00;4.00;;;;;20.19;43.90;101680.59;4979969;28;45402;-38
2023/05/02 01:53:27;;;;;;;;;6.00;4.25;;;;;20.19;43.62;101677.97;4979497;28;46227;-37
2023/05/02 01:55:54;;;;;;;;;6.00;5.00;;;;;20.20;43.81;101676.19;4983677;28;45935;-38
2023/05/02 01:58:20;;;;;;;;;7.50;4.25;;;;;20.19;43.35;101677.13;4987731;28;45404;-37
2023/05/02 02:00:47;;;;;;;;;5.00;5.00;;;;;20.19;43.52;101674.47;4983526;28;45231;-43
2023/05/02 02:03:14;;;;;;;;;5.50;5.50;;;;;20.19;43.49;101674.47;4981103;28;45420;-41
2023/05/02 02:05:41;;;;;;;;;4.25;4.00;;;;;20.19;43.76;101670.06;4986663;28;45246;-40
2023/05/02 02:08:07;;;;;;;;;5.75;4.00;;;;;20.20;43.59;101673.56;4985845;28;45388;-42
2023/05/02 02:10:39;;;;;;;;;5.50;4.75;;;;;20.18;43.41;101670.97;4979780;28;45555;-41
2023/05/02 02:13:17;;;;;;;;;7.00;5.00;;;;;20.17;43.52;101671.06;4986719;28;46583;-39
2023/05/02 02:15:47;;;;;;;;;6.00;6.00;;;;;20.18;43.56;101670.13;4985777;28;45701;-37
2023/05/02 02:18:19;;;;;;;;;4.00;4.00;;;;;20.18;43.70;101670.97;4980338;28;45475;-43
2023/05/02 02:20:49;;;;;;;;;7.00;5.25;;;;;20.18;43.79;101678.03;4980542;28;45357;-39
2023/05/02 02:23:15;;;;;;;;;6.00;6.00;;;;;20.17;43.38;101685.09;4980238;28;45273;-38
2023/05/02 02:25:43;;;;;;;;;7.25;4.75;;;;;20.18;43.52;101685.94;4982457;28;45834;-38
2023/05/02 02:28:09;;;;;;;;;4.00;4.00;;;;;20.18;43.77;101683.28;4982171;28;45423;-45
2023/05/02 02:30:34;;;;;;;;;4.00;4.00;;;;;20.17;43.63;101686.84;4984612;28;45367;-37
2023/05/02 02:32:59;;;;;;;;;6.00;5.00;;;;;20.16;43.71;101683.38;4987153;28;47055;-41
2023/05/02 02:35:37;;;;;;;;;5.00;4.00;;;;;20.18;43.49;101688.56;4984649;28;64463;-41
2023/05/02 02:38:24;;;;;;;;;4.00;4.00;;;;;20.17;43.46;101694.75;4985217;28;45185;-42
2023/05/02 02:41:05;;;;;;;;;5.25;4.00;;;;;20.16;43.39;101685.13;4986844;28;45270;-38
2023/05/02 02:43:52;;;;;;;;;4.00;4.00;;;;;20.17;43.25;101697.38;4984271;28;45540;-41
2023/05/02 02:46:33;;;;;;;;;2.00;2.00;;;;;20.15;43.40;101693.94;4979873;28;45791;-41
2023/05/02 02:49:06;;;;;;;;;4.00;4.00;;;;;20.17;43.35;101697.38;4980196;28;45269;-41
2023/05/02 02:51:42;;;;;;;;;5.25;4.75;;;;;20.15;43.68;101697.44;4988102;28;45300;-39
2023/05/02 02:54:27;;;;;;;;;5.25;5.00;;;;;20.15;43.51;101700.06;4984731;28;46221;-41
2023/05/02 02:57:00;;;;;;;;;5.00;5.00;;;;;20.16;43.72;101700.91;4992295;28;45241;-40
2023/05/02 02:59:33;;;;;;;;;5.00;5.00;;;;;20.15;43.37;101701.84;4984222;28;45302;-38
2023/05/02 03:02:05;;;;;;;;;3.00;3.00;;;;;20.15;43.47;101696.56;4980254;28;45340;-36
2023/05/02 03:04:32;;;;;;;;;4.75;4.75;;;;;20.16;43.32;101706.19;4981541;28;47120;-39
2023/05/02 03:06:59;;;;;;;;;5.00;3.75;;;;;20.16;43.32;101698.28;4986420;28;45765;-41
2023/05/02 03:09:29;;;;;;;;;2.50;2.50;;;;;20.16;43.47;101700.91;4982991;28;45407;-39
2023/05/02 03:11:54;;;;;;;;;6.00;5.50;;;;;20.14;43.39;101693.09;4979261;28;45348;-41
2023/05/02 03:14:19;;;;;;;;;5.00;4.00;;;;;20.16;43.77;101695.66;4978639;28;45345;-38
2023/05/02 03:16:45;;;;;;;;;5.00;5.00;;;;;20.15;43.38;101699.19;4979158;28;45332;-41
2023/05/02 03:19:10;;;;;;;;;5.00;5.00;;;;;20.14;43.51;101702.75;4984016;28;45266;-41
2023/05/02 03:21:36;;;;;;;;;6.00;5.00;;;;;20.16;43.48;101700.91;4981827;28;45554;-40
2023/05/02 03:24:03;;;;;;;;;5.50;4.00;;;;;20.15;43.53;101704.47;4977922;28;47252;-39
2023/05/02 03:26:29;;;;;;;;;4.00;4.00;;;;;20.15;43.67;101710.59;4978858;28;45370;-41
2023/05/02 03:28:55;;;;;;;;;5.00;5.00;;;;;20.15;43.74;101705.34;4978881;28;45459;-37
2023/05/02 03:31:20;;;;;;;;;4.75;3.25;;;;;20.14;43.78;101708.88;4978808;28;45451;-42
2023/05/02 03:33:46;;;;;;;;;6.50;5.00;;;;;20.14;43.57;101708.00;4978518;28;45454;-39
2023/05/02 03:36:12;;;;;;;;;3.25;3.00;;;;;20.15;43.26;101709.72;4980603;28;45421;-39
2023/05/02 03:38:37;;;;;;;;;6.00;4.25;;;;;20.14;43.69;101713.28;4982126;28;45344;-42
2023/05/02 03:41:03;;;;;;;;;6.00;4.50;;;;;20.13;43.49;101711.56;4987453;28;45346;-40
2023/05/02 03:43:29;;;;;;;;;5.50;5.00;;;;;20.13;43.49;101712.44;4983641;28;45357;-41
2023/05/02 03:45:54;;;;;;;;;4.75;4.75;;;;;20.14;43.75;101722.06;4984431;28;45400;-41
2023/05/02 03:48:19;;;;;;;;;6.25;4.00;;;;;20.13;43.49;101717.69;4980564;28;45433;-38
2023/05/02 03:50:46;;;;;;;;;7.25;4.75;;;;;20.14;43.54;101715.91;4979631;28;45368;-42
2023/05/02 03:53:11;;;;;;;;;4.25;4.00;;;;;20.14;43.82;101718.53;4979020;28;45443;-38
2023/05/02 03:55:40;;;;;;;;;6.00;5.25;;;;;20.13;43.26;101717.69;4979228;28;45510;-38
2023/05/02 03:58:06;;;;;;;;;4.00;4.00;;;;;20.12;43.49;101715.97;4979373;28;45282;-37
2023/05/02 04:00:31;;;;;;;;;4.00;4.00;;;;;20.13;43.31;101722.09;4983819;28;45475;-38
2023/05/02 04:02:57;;;;;;;;;3.25;3.25;;;;;20.11;43.51;101708.16;4985461;28;45946;-42
2023/05/02 04:05:22;;;;;;;;;6.00;4.75;;;;;20.13;43.31;101714.19;4985224;28;45277;-38
2023/05/02 04:07:47;;;;;;;;;4.00;4.00;;;;;20.13;43.68;101716.81;4984808;28;57273;-37
2023/05/02 04:10:15;;;;;;;;;3.25;2.00;;;;;20.12;43.22;101715.13;4980046;28;45600;-39
2023/05/02 04:12:42;;;;;;;;;4.00;4.00;;;;;20.13;43.39;101720.34;4983275;28;46939;-41
2023/05/02 04:15:08;;;;;;;;;5.00;5.00;;;;;20.11;43.59;101709.00;4989741;28;45262;-43
2023/05/02 04:17:33;;;;;;;;;5.00;4.75;;;;;20.12;43.31;101705.47;4985299;28;45487;-42
2023/05/02 04:19:58;;;;;;;;;7.00;5.25;;;;;20.12;43.93;101709.88;4978422;28;45635;-42
2023/05/02 04:22:24;;;;;;;;;4.33;4.33;;;;;20.14;43.67;101721.19;4978521;28;58406;-40
2023/05/02 04:24:49;;;;;;;;;7.75;5.25;;;;;20.12;43.36;101720.41;4981589;28;45405;-40
2023/05/02 04:27:15;;;;;;;;;5.00;5.00;;;;;20.12;43.87;101733.56;4982081;28;45429;-42
2023/05/02 04:29:40;;;;;;;;;5.00;4.75;;;;;20.11;43.45;101735.31;4981985;28;45649;-39
2023/05/02 04:32:06;;;;;;;;;4.50;4.50;;;;;20.11;43.88;101737.09;4981353;28;54191;-41
2023/05/02 04:34:31;;;;;;;;;5.00;5.00;;;;;20.11;43.30;101739.75;4981952;28;45474;-37
2023/05/02 04:36:56;;;;;;;;;6.00;5.00;;;;;20.10;43.47;101738.03;4986132;28;45388;-40
2023/05/02 04:39:22;;;;;;;;;6.00;5.00;;;;;20.11;43.80;101748.47;4987620;28;45424;-36
2023/05/02 04:41:47;;;;;;;;;5.00;5.00;;;;;20.11;43.75;101747.63;4987022;28;45606;-41
2023/05/02 04:44:13;;;;;;;;;9.00;8.50;;;;;20.12;43.76;101757.25;4981666;28;45278;-42
2023/05/02 04:46:38;;;;;;;;;16.00;14.50;;;;;20.12;43.94;101763.34;4981132;28;58502;-39
2023/05/02 04:49:03;;;;;;;;;17.00;16.25;;;;;20.12;44.64;101762.50;4987091;28;45500;-38
2023/05/02 04:51:30;;;;;;;;;16.50;15.50;;;;;20.13;44.57;101764.19;4987660;28;47545;-38
2023/05/02 04:53:56;;;;;;;;;17.25;16.00;;;;;20.13;44.66;101770.34;4983925;28;45240;-40
2023/05/02 04:56:21;;;;;;;;;16.00;14.75;;;;;20.13;45.11;101767.72;4988361;28;45297;-38
2023/05/02 04:58:46;;;;;;;;;14.50;13.50;;;;;20.14;44.68;101769.41;4985803;28;45563;-39
2023/05/02 05:01:12;;;;;;;;;16.75;15.75;;;;;20.15;44.72;101767.63;4985357;28;64251;-40
2023/05/02 05:03:37;;;;;;;;;18.50;16.25;;;;;20.14;45.31;101761.53;4991112;28;59787;-40
2023/05/02 05:06:03;;;;;;;;;19.67;16.67;;;;;20.14;45.20;101777.31;4995951;28;46418;-45
2023/05/02 05:08:28;;;;;;;;;18.75;17.50;;;;;20.16;45.64;101771.97;5003714;28;44957;-38
2023/05/02 05:10:53;;;;;;;;;18.25;17.75;;;;;20.16;45.70;101774.63;5000274;28;45149;-41
2023/05/02 05:13:19;;;;;;;;;19.50;18.50;;;;;20.16;46.09;101778.13;4997989;28;44751;-45
2023/05/02 05:15:44;;;;;;;;;20.75;19.25;;;;;20.14;46.37;101777.31;4986398;28;45373;-42
2023/05/02 05:18:09;;;;;;;;;22.50;20.75;;;;;20.16;46.39;101787.78;4984321;28;45682;-36
2023/05/02 05:20:35;;;;;;;;;28.25;22.75;;;;;20.14;46.84;101784.34;4980106;28;69032;-39
2023/05/02 05:23:00;;;;;;;;;25.33;24.67;;;;;20.16;46.22;101786.03;4984062;28;55795;-40
2023/05/02 05:25:26;;;;;;;;;26.00;23.67;;;;;20.16;47.22;101795.66;4986743;28;45383;-40
2023/05/02 05:27:52;;;;;;;;;24.50;24.50;;;;;20.16;46.74;101799.19;4988344;28;45320;-40
2023/05/02 05:30:17;;;;;;;;;23.25;22.50;;;;;20.14;46.53;101797.50;4988433;28;46285;-39
2023/05/02 05:32:43;;;;;;;;;29.75;27.00;;;;;20.16;46.72;101801.81;4991828;28;45405;-41
2023/05/02 05:35:09;;;;;;;;;25.25;25.00;;;;;20.14;47.03;101800.13;4992457;28;45329;-42
2023/05/02 05:37:36;;;;;;;;;29.25;24.00;;;;;20.15;46.96;101813.25;4984379;28;45202;-42
2023/05/02 05:40:01;;;;;;;;;25.25;24.50;;;;;20.16;46.80;101816.72;4985558;28;46333;-38
2023/05/02 05:42:27;;;;;;;;;24.50;23.50;;;;;20.16;46.58;101816.72;4979405;28;45362;-40
2023/05/02 05:44:52;;;;;;;;;26.25;24.00;;;;;20.14;46.05;101814.16;4980147;28;45302;-39
2023/05/02 05:47:21;;;;;;;;;20.75;19.75;;;;;20.15;46.15;101818.53;4980470;28;45254;-41
2023/05/02 05:49:46;;;;;;;;;14.50;14.50;;;;;20.15;46.55;101817.63;4979828;28;46350;-41
2023/05/02 05:52:12;;;;;;;;;20.75;18.75;;;;;20.16;46.62;101825.50;4980130;28;45436;-39
2023/05/02 05:54:37;;;;;;;;;20.00;19.50;;;;;20.16;46.16;101824.63;4980009;28;57516;-39
2023/05/02 05:57:03;;;;;;;;;24.75;22.00;;;;;20.16;46.37;101827.25;4982651;28;49871;-41
2023/05/02 05:59:28;;;;;;;;;19.25;18.75;;;;;20.16;46.00;101832.53;4985821;28;46908;-40
2023/05/02 06:01:53;;;;;;;;;18.00;17.25;;;;;20.15;45.94;101834.31;4981102;28;45372;-41
2023/05/02 06:04:19;;;;;;;;;21.33;18.00;;;;;20.15;46.28;101828.16;4979631;28;55936;-40
2023/05/02 06:06:44;;;;;;;;;23.67;18.33;;;;;20.16;46.55;101832.53;4978976;28;59670;-41
2023/05/02 06:09:10;;;;;;;;;19.50;18.50;;;;;20.16;46.48;101851.81;4979386;28;45906;-36
2023/05/02 06:11:37;;;;;;;;;21.00;19.75;;;;;20.16;46.45;101845.69;4979516;28;45322;-39
2023/05/02 06:14:02;;;;;;;;;17.00;17.00;;;;;20.16;46.00;101850.94;4980517;28;45370;-40
2023/05/02 06:16:27;;;;;;;;;20.50;18.25;;;;;20.17;45.97;101850.91;4986192;28;45566;-40
2023/05/02 06:18:52;;;;;;;;;18.33;16.67;;;;;20.17;45.94;101855.28;4986060;28;63744;-40
2023/05/02 06:21:18;;;;;;;;;19.67;17.67;;;;;20.17;46.00;101858.81;4985905;28;58073;-37
2023/05/02 06:23:44;;;;;;;;;16.25;16.25;;;;;20.17;46.12;101860.56;4986070;28;45458;-43
2023/05/02 06:26:10;;;;;;;;;17.50;15.50;;;;;20.18;45.86;101857.00;4980717;28;45309;-43
2023/05/02 06:28:35;;;;;;;;;18.00;15.75;;;;;20.17;46.22;101860.56;5000895;28;47627;-46
2023/05/02 06:31:03;;;;;;;;;19.50;16.75;;;;;20.18;46.50;101867.53;4988249;28;45343;-40
2023/05/02 06:33:29;;;;;;;;;17.25;15.50;;;;;20.17;46.09;101866.69;4994405;28;45368;-42
2023/05/02 06:35:55;;;;;;;;;17.75;15.25;;;;;20.16;46.16;101859.72;4981904;28;45502;-37
2023/05/02 06:38:21;;;;;;;;;17.75;16.25;;;;;20.20;45.68;101870.97;4979978;28;46438;-44
2023/05/02 06:40:47;;;;;;;;;18.50;15.00;;;;;20.24;46.09;101873.44;4980445;28;45368;-39
2023/05/02 06:43:13;;;;;;;;;18.75;16.50;;;;;20.30;45.79;101876.75;4986377;28;45338;-40
2023/05/02 06:45:39;;;;;;;;;14.75;13.50;;;;;20.31;45.38;101881.09;4980851;28;45225;-38
2023/05/02 06:48:05;;;;;;;;;15.00;14.25;;;;;20.32;45.58;101875.78;4980335;28;45402;-41
2023/05/02 06:50:30;;;;;;;;;12.25;12.25;;;;;20.34;45.89;101883.63;4981222;28;45462;-41
2023/05/02 06:52:55;;;;;;;;;13.50;11.50;;;;;20.34;45.70;101889.72;4998503;28;60807;-39
2023/05/02 06:55:21;;;;;;;;;13.50;13.50;;;;;20.34;45.43;101887.09;4985714;28;50917;-42
2023/05/02 06:57:48;;;;;;;;;14.00;11.25;;;;;20.36;45.74;101881.78;4980909;28;45500;-43
2023/05/02 07:00:15;;;;;;;;;16.00;14.25;;;;;20.35;45.41;101880.06;4980496;28;45473;-45
2023/05/02 07:02:41;;;;;;;;;16.00;13.50;;;;;20.37;45.14;101879.09;4985288;28;45298;-44
2023/05/02 07:05:06;;;;;;;;;15.33;14.00;;;;;20.37;45.30;101879.09;4994339;28;57223;-41
2023/05/02 07:07:32;;;;;;;;;13.50;13.00;;;;;20.38;45.09;101891.34;4985264;28;46291;-42
2023/05/02 07:09:57;;;;;;;;;14.00;12.50;;;;;20.41;45.50;101886.88;4982502;28;45360;-38
2023/05/02 07:12:22;;;;;;;;;14.67;11.33;;;;;20.41;45.20;101889.50;4983173;28;59642;-42
2023/05/02 07:14:48;;;;;;;;;15.67;11.00;;;;;20.42;45.22;101897.34;4982516;28;53392;-41
2023/05/02 07:17:14;;;;;;;;;16.75;16.00;;;;;20.42;45.24;101888.59;4983017;28;45494;-41
2023/05/02 07:19:39;;;;;;;;;20.25;16.75;;;;;20.43;45.05;101890.31;4987241;28;45401;-40
2023/05/02 07:22:06;;;;;;;;;21.50;14.50;;;;;20.44;45.46;101884.13;4987191;28;45222;-42
2023/05/02 07:24:31;;;;;;;;;17.75;16.50;;;;;20.45;44.96;101880.59;4985541;28;45443;-39
2023/05/02 07:26:56;;;;;;;;;19.00;16.33;;;;;20.47;45.32;101878.72;4985177;28;62249;-38
2023/05/02 07:29:21;;;;;;;;;14.67;14.67;;;;;20.47;45.37;101878.72;4980676;28;55125;-38
2023/05/02 07:31:47;;;;;;;;;21.50;16.25;;;;;20.48;44.98;101877.81;4978836;28;45263;-42
2023/05/02 07:34:12;;;;;;;;;21.25;16.00;;;;;20.49;44.84;101884.81;4982597;28;45531;-43
2023/05/02 07:36:38;;;;;;;;;16.50;15.25;;;;;20.47;44.97;101884.88;4984204;28;46062;-41
2023/05/02 07:39:03;;;;;;;;;17.00;14.25;;;;;20.49;45.16;101887.44;4985342;28;45410;-40
2023/05/02 07:41:28;;;;;;;;;16.25;14.50;;;;;20.48;45.29;101897.13;4992175;28;45389;-41
2023/05/02 07:43:54;;;;;;;;;19.75;15.25;;;;;20.49;45.31;101888.31;4988150;28;45392;-45
2023/05/02 07:46:20;;;;;;;;;16.75;15.50;;;;;20.49;44.75;101896.22;4979022;28;46265;-39
2023/05/02 07:48:45;;;;;;;;;15.50;14.75;;;;;20.51;44.69;101901.41;4994490;28;45508;-41
2023/05/02 07:51:11;;;;;;;;;13.25;12.75;;;;;20.50;44.80;101900.56;4980895;28;45301;-39
2023/05/02 07:53:36;;;;;;;;;11.50;11.50;;;;;20.48;44.84;101901.53;4979068;28;45523;-40
2023/05/02 07:56:07;;;;;;;;;13.00;10.50;;;;;20.52;45.13;101908.41;4978828;28;46337;-40
2023/05/02 07:58:33;;;;;;;;;13.00;12.00;;;;;20.50;45.10;101899.69;4977853;28;45872;-38
2023/05/02 08:00:58;;;;;;;;;5.00;5.00;;;;;20.52;44.60;101909.25;4978767;28;45238;-39
2023/05/02 08:03:24;;;;;;;;;12.50;12.00;;;;;20.52;44.94;101906.59;4978443;28;45241;-39
2023/05/02 08:05:49;;;;;;;;;9.33;9.33;;;;;20.54;45.08;101903.94;4977944;28;59345;-37
2023/05/02 08:08:14;;;;;;;;;14.25;12.00;;;;;20.54;44.96;101906.56;4978450;28;45494;-39
2023/05/02 08:10:40;;;;;;;;;14.50;11.50;;;;;20.55;44.57;101911.75;4978492;28;45304;-36
2023/05/02 08:13:05;;;;;;;;;14.00;11.00;;;;;20.54;45.12;101912.69;4979285;28;45301;-41
2023/05/02 08:15:30;;;;;;;;;17.00;13.00;;;;;20.57;44.56;101919.59;4988307;28;69291;-37
2023/05/02 08:17:55;;;;;;;;;13.50;11.00;;;;;20.58;45.16;101923.94;5004395;28;45345;-42
2023/05/02 08:20:21;;;;;;;;;10.25;9.75;;;;;20.59;44.90;101928.31;4979297;28;45217;-41
2023/05/02 08:22:47;;;;;;;;;14.00;11.00;;;;;20.59;45.05;101925.66;4978160;28;45175;-38
2023/05/02 08:25:12;;;;;;;;;13.25;12.00;;;;;20.60;45.01;101922.13;4977895;28;46252;-40
2023/05/02 08:27:37;;;;;;;;;15.25;11.75;;;;;20.60;44.83;101932.66;4993124;28;56506;-36
2023/05/02 08:30:03;;;;;;;;;14.50;13.25;;;;;20.61;44.79;101936.16;4979176;28;45640;-35
2023/05/02 08:32:28;;;;;;;;;14.00;11.50;;;;;20.63;44.74;101932.56;4978529;28;45630;-37
2023/05/02 08:34:58;;;;;;;;;12.75;11.25;;;;;20.64;44.50;101936.03;4978300;28;50894;-40
2023/05/02 08:37:23;;;;;;;;;12.50;11.00;;;;;20.65;44.46;101932.47;4977798;28;45420;-39
2023/05/02 08:39:48;;;;;;;;;16.00;14.00;;;;;20.64;44.90;101926.38;4977026;28;60912;-39
2023/05/02 08:42:14;;;;;;;;;10.67;9.67;;;;;20.65;44.57;101935.13;4983070;28;57049;-40
2023/05/02 08:44:39;;;;;;;;;14.25;10.00;;;;;20.65;44.34;101938.63;4984617;28;45293;-36
2023/05/02 08:47:06;;;;;;;;;11.75;8.75;;;;;20.66;44.62;101937.72;4987515;28;45433;-36
2023/05/02 08:49:33;;;;;;;;;11.00;10.25;;;;;20.67;44.18;101943.81;4980019;28;45454;-38
2023/05/02 08:52:01;;;;;;;;;15.50;12.00;;;;;20.66;44.74;101948.25;4979083;28;45227;-42
2023/05/02 08:54:26;;;;;;;;;14.25;10.00;;;;;20.66;44.49;101942.97;4998162;28;46984;-41
2023/05/02 08:56:53;;;;;;;;;12.00;11.00;;;;;20.68;44.39;101950.81;4985602;28;45313;-41
2023/05/02 08:59:18;;;;;;;;;10.25;10.00;;;;;20.67;44.40;101954.34;4983678;28;45312;-40
2023/05/02 09:01:48;;;;;;;;;10.25;10.00;;;;;20.66;44.51;101955.28;4984614;28;45348;-40
2023/05/02 09:04:13;;;;;;;;;11.25;10.75;;;;;20.67;44.39;101955.19;4984182;28;45432;-43
2023/05/02 09:06:39;;;;;;;;;11.25;11.25;;;;;20.67;44.44;101957.84;4984672;28;45811;-41
2023/05/02 09:09:05;;;;;;;;;12.50;10.50;;;;;20.67;43.98;101951.72;4982215;28;45291;-39
2023/05/02 09:11:31;;;;;;;;;8.75;8.00;;;;;20.66;44.62;101955.28;4986815;28;45404;-41
2023/05/02 09:14:02;;;;;;;;;14.50;9.25;;;;;20.67;44.52;101960.47;4984544;28;46112;-38
2023/05/02 09:16:28;;;;;;;;;12.25;10.25;;;;;20.68;44.43;101963.97;4981806;28;45742;-42
2023/05/02 09:18:55;;;;;;;;;10.75;8.25;;;;;20.68;44.45;101972.72;4990834;28;45174;-39
2023/05/02 09:21:25;;;;;;;;;8.00;8.00;;;;;20.69;44.07;101977.09;4991816;28;44890;-41
2023/05/02 09:23:55;;;;;;;;;7.00;6.25;;;;;20.68;44.55;101972.72;4992336;28;45228;-39
2023/05/02 09:26:22;;;;;;;;;11.50;11.50;;;;;20.69;44.41;101985.00;4996505;28;45233;-37
2023/05/02 09:28:52;;;;;;;;;13.00;10.00;;;;;20.68;44.03;101983.25;5000160;28;44787;-40
2023/05/02 09:31:26;;;;;;;;;9.00;9.00;;;;;20.67;44.41;101989.44;4989186;28;45155;-37
2023/05/02 09:33:52;;;;;;;;;15.00;12.00;;;;;20.66;43.97;101993.03;4984723;28;46330;-45
2023/05/02 09:36:19;;;;;;;;;13.25;10.25;;;;;20.67;43.88;101989.44;4987366;28;45455;-38
2023/05/02 09:38:47;;;;;;;;;12.75;10.75;;;;;20.66;44.38;101993.03;4987003;28;45388;-37
2023/05/02 09:41:13;;;;;;;;;15.25;11.00;;;;;20.67;44.33;101991.25;4981685;28;45489;-38
2023/05/02 09:43:39;;;;;;;;;12.00;8.75;;;;;20.67;44.33;101992.09;4980710;28;46881;-38
2023/05/02 09:46:09;;;;;;;;;12.00;9.25;;;;;20.69;44.31;102006.06;4981192;28;45339;-39
2023/05/02 09:48:56;;;;;;;;;10.50;10.00;;;;;20.68;44.16;101996.44;4981435;28;45197;-39
2023/05/02 09:51:24;;;;;;;;;11.00;9.50;;;;;20.67;44.00;101991.25;4981778;28;45590;-38
2023/05/02 09:53:50;;;;;;;;;12.00;10.00;;;;;20.66;43.98;101993.03;4981213;28;47134;-38
2023/05/02 09:56:16;;;;;;;;;13.50;12.25;;;;;20.67;44.06;101997.34;4980361;28;45310;-44
2023/05/02 09:58:42;;;;;;;;;25.00;22.75;;;;;20.63;43.81;101995.78;4989740;28;45230;-41
2023/05/02 10:01:14;;;;;;;;;25.75;23.00;;;;;20.62;43.87;102004.59;4994366;28;45576;-41
2023/05/02 10:03:40;;;;;;;;;27.00;22.75;;;;;20.54;43.64;101998.75;4989668;28;47034;-39
2023/05/02 10:06:08;;;;;;;;;23.50;18.75;;;;;20.49;43.32;102011.22;4985951;28;45896;-42
2023/05/02 10:08:34;;;;;;;;;19.50;17.75;;;;;20.44;43.67;102002.63;4980172;28;45244;-42
2023/05/02 10:11:02;;;;;;;;;19.25;18.00;;;;;20.41;43.65;102008.84;4979664;28;45249;-44
2023/05/02 10:13:31;;;;;;;;;19.50;19.50;;;;;20.34;43.33;102002.94;4979205;28;46172;-41
2023/05/02 10:16:02;;;;;;;;;18.00;16.00;;;;;20.31;43.37;102005.72;4979278;28;45190;-37
2023/05/02 10:18:47;;;;;;;;;23.50;17.00;;;;;20.27;43.23;102004.09;4979300;28;45508;-37
2023/05/02 10:21:18;;;;;;;;;23.50;19.00;;;;;20.22;43.17;102008.69;4978572;28;45332;-40
2023/05/02 10:23:44;;;;;;;;;20.50;15.25;;;;;20.20;43.50;102005.22;4978619;28;45279;-38
2023/05/02 10:26:13;;;;;;;;;19.75;16.00;;;;;20.19;43.64;101998.25;4979325;28;45336;-38
2023/05/02 10:28:41;;;;;;;;;17.50;15.25;;;;;20.19;43.48;101998.25;4979577;28;45348;-38
2023/05/02 10:31:09;;;;;;;;;17.25;15.00;;;;;20.18;43.49;101999.16;4982532;28;45162;-39
2023/05/02 10:33:35;;;;;;;;;15.25;13.25;;;;;20.16;44.06;102003.59;4982312;28;46456;-41
2023/05/02 10:36:01;;;;;;;;;12.00;9.75;;;;;20.15;43.79;101994.00;4984889;28;45392;-44
2023/05/02 10:38:27;;;;;;;;;13.25;11.00;;;;;20.14;43.73;102001.03;4985223;28;45897;-40
2023/05/02 10:41:00;;;;;;;;;13.75;13.75;;;;;20.12;43.33;101999.38;4987100;28;45341;-37
2023/05/02 10:43:30;;;;;;;;;11.75;11.75;;;;;20.10;43.44;102004.69;4981800;28;46283;-39
2023/05/02 10:45:55;;;;;;;;;18.25;15.00;;;;;20.06;43.53;101996.03;4997395;28;45851;-40
2023/05/02 10:48:23;;;;;;;;;17.25;14.25;;;;;20.07;44.21;102004.78;4982008;28;45894;-38
2023/05/02 10:50:51;;;;;;;;;15.25;15.25;;;;;20.05;44.21;102004.84;4979111;28;45183;-39
2023/05/02 10:53:38;;;;;;;;;11.50;11.00;;;;;20.05;43.92;102009.25;4984560;28;45424;-38
2023/05/02 10:56:21;;;;;;;;;15.50;13.25;;;;;20.04;44.27;102002.28;4983823;28;45352;-39
2023/05/02 10:58:48;;;;;;;;;14.25;12.00;;;;;20.03;44.25;102001.41;4991357;28;45269;-43
2023/05/02 11:01:35;;;;;;;;;14.25;12.50;;;;;20.05;44.03;102004.00;4980105;28;45336;-40
2023/05/02 11:04:00;;;;;;;;;11.75;10.00;;;;;20.03;44.04;102000.56;4978331;28;46320;-40
2023/05/02 11:06:27;;;;;;;;;15.33;13.00;;;;;20.02;43.89;101999.69;4978332;28;45445;-42
2023/05/02 11:09:16;;;;;;;;;15.25;12.50;;;;;20.00;43.76;102001.53;4979482;28;45226;-41
2023/05/02 11:11:46;;;;;;;;;16.75;14.25;;;;;19.99;44.07;102010.34;4980375;28;45372;-38
2023/05/02 11:14:37;;;;;;;;;18.00;14.50;;;;;19.97;44.32;102006.88;4980273;28;47108;-38
2023/05/02 11:17:03;;;;;;;;;17.75;14.00;;;;;19.96;44.44;101999.91;4982630;28;45404;-41
2023/05/02 11:19:50;;;;;;;;;18.50;14.75;;;;;19.94;44.33;101999.09;4989489;28;45289;-38